createdAt,value
2019-05-15T00:02:58.834Z,7.20
2019-05-15T00:08:09.923Z,7.10
2019-05-15T00:13:13.537Z,7.30
2019-05-15T00:18:20.307Z,7.40
2019-05-15T00:23:28.950Z,7.30
2019-05-15T00:28:34.563Z,7.30
2019-05-15T00:33:41.699Z,7.70
2019-05-15T00:38:48.302Z,7.70
2019-05-15T00:43:52.992Z,7.10
2019-05-15T00:48:59.020Z,7.20
2019-05-15T00:54:01.878Z,7.40
2019-05-15T00:59:08.456Z,7.30
2019-05-15T01:04:14.615Z,7.20
2019-05-15T01:09:19.838Z,7.30
2019-05-15T01:14:23.453Z,7.10
2019-05-15T01:19:28.709Z,7.10
2019-05-15T01:24:35.117Z,7.30
2019-05-15T01:29:44.802Z,7.30
2019-05-15T01:34:43.971Z,7.30
2019-05-15T01:39:51.874Z,7.20
2019-05-15T01:44:58.969Z,7.30
2019-05-15T01:50:08.936Z,7.50
2019-05-15T01:55:12.043Z,7.40
2019-05-15T02:00:18.693Z,7.40
2019-05-15T02:05:22.890Z,7.10
2019-05-15T02:10:29.049Z,6.90
2019-05-15T02:15:33.674Z,7.00
2019-05-15T02:20:39.015Z,7.00
2019-05-15T02:25:42.599Z,7.20
2019-05-15T02:30:50.353Z,7.10
2019-05-15T02:35:53.796Z,7.20
2019-05-15T02:40:59.236Z,7.40
2019-05-15T02:46:03.168Z,7.50
2019-05-15T02:51:09.921Z,7.60
2019-05-15T02:56:20.289Z,7.80
2019-05-15T03:01:24.675Z,7.70
2019-05-15T03:06:31.240Z,7.30
2019-05-15T03:11:34.840Z,7.30
2019-05-15T03:16:39.455Z,7.20
2019-05-15T03:21:43.465Z,7.40
2019-05-15T03:26:49.637Z,7.20
2019-05-15T03:32:06.077Z,7.30
2019-05-15T03:37:02.545Z,7.40
2019-05-15T03:42:03.112Z,7.20
2019-05-15T03:47:09.265Z,6.80
2019-05-15T03:52:12.150Z,6.60
2019-05-15T03:57:20.042Z,6.60
2019-05-15T04:02:21.081Z,6.40
2019-05-15T04:07:24.736Z,6.30
2019-05-15T04:12:29.158Z,6.20
2019-05-15T04:17:32.803Z,6.10
2019-05-15T04:22:39.580Z,6.00
2019-05-15T04:27:43.506Z,6.00
2019-05-15T04:32:48.790Z,6.40
2019-05-15T04:37:52.516Z,6.30
2019-05-15T04:42:59.006Z,6.30
2019-05-15T04:48:01.390Z,6.60
2019-05-15T04:53:05.136Z,6.60
2019-05-15T04:58:09.982Z,6.70
2019-05-15T05:03:14.262Z,6.90
2019-05-15T05:08:20.062Z,6.90
2019-05-15T05:13:23.340Z,6.90
2019-05-15T05:18:29.504Z,7.10
2019-05-15T05:23:32.187Z,7.00
2019-05-15T05:28:37.798Z,7.00
2019-05-15T05:33:41.111Z,7.00
2019-05-15T05:38:44.703Z,7.10
2019-05-15T05:43:48.850Z,7.30
2019-05-15T05:48:52.500Z,7.50
2019-05-15T05:53:56.112Z,7.50
2019-05-15T05:58:59.730Z,7.50
2019-05-15T06:04:03.417Z,7.80
2019-05-15T06:09:09.190Z,7.50
2019-05-15T06:14:12.421Z,7.70
2019-05-15T06:19:18.071Z,7.60
2019-05-15T06:24:21.502Z,7.60
2019-05-15T06:29:25.103Z,7.60
2019-05-15T06:34:28.770Z,7.60
2019-05-15T06:39:32.480Z,7.90
2019-05-15T06:44:36.111Z,8.20
2019-05-15T06:49:39.705Z,8.20
2019-05-15T06:54:43.297Z,8.10
2019-05-15T06:59:48.429Z,8.20
2019-05-15T07:04:52.422Z,8.40
2019-05-15T07:09:58.194Z,8.40
2019-05-15T07:15:03.784Z,8.60
2019-05-15T07:20:09.449Z,8.90
2019-05-15T07:25:13.579Z,9.10
2019-05-15T07:30:19.138Z,8.90
2019-05-15T07:35:24.382Z,9.10
2019-05-15T07:40:29.014Z,9.20
2019-05-15T07:45:33.508Z,9.30
2019-05-15T07:50:38.668Z,9.20
2019-05-15T07:55:42.340Z,9.60
2019-05-15T08:00:45.959Z,9.80
2019-05-15T08:05:58.638Z,9.80
2019-05-15T08:10:54.888Z,9.90
2019-05-15T08:15:58.498Z,10.20
2019-05-15T08:21:02.163Z,10.40
2019-05-15T08:26:05.972Z,10.40
2019-05-15T08:31:10.431Z,10.60
2019-05-15T08:36:14.379Z,10.80
2019-05-15T08:41:18.515Z,10.80
2019-05-15T08:46:22.466Z,11.10
2019-05-15T08:51:28.280Z,11.60
2019-05-15T08:56:31.342Z,11.80
2019-05-15T09:01:34.945Z,11.40
2019-05-15T09:06:41.271Z,11.50
2019-05-15T09:11:43.859Z,11.60
2019-05-15T09:16:48.942Z,12.00
2019-05-15T09:21:52.783Z,12.90
2019-05-15T09:26:59.218Z,12.20
2019-05-15T09:32:01.787Z,12.40
2019-05-15T09:37:05.422Z,12.00
2019-05-15T09:42:09.033Z,12.00
2019-05-15T09:47:12.679Z,12.20
2019-05-15T09:52:21.959Z,12.00
2019-05-15T09:57:22.300Z,11.80
2019-05-15T10:02:28.252Z,11.60
2019-05-15T10:07:31.149Z,11.70
2019-05-15T10:12:35.359Z,11.80
2019-05-15T10:17:39.377Z,12.20
2019-05-15T10:22:43.087Z,12.20
2019-05-15T10:27:48.875Z,11.90
2019-05-15T10:32:51.994Z,12.00
2019-05-15T10:37:55.594Z,11.70
2019-05-15T10:42:59.497Z,11.80
2019-05-15T10:48:03.352Z,11.90
2019-05-15T10:53:10.912Z,12.30
2019-05-15T10:58:17.085Z,12.40
2019-05-15T11:03:19.964Z,11.80
2019-05-15T11:08:23.201Z,12.00
2019-05-15T11:13:28.846Z,11.80
2019-05-15T11:18:32.056Z,12.50
2019-05-15T11:23:35.726Z,12.70
2019-05-15T11:28:39.528Z,12.40
2019-05-15T11:33:43.313Z,12.00
2019-05-15T11:38:48.613Z,11.90
2019-05-15T11:43:53.152Z,12.80
2019-05-15T11:48:58.735Z,12.80
2019-05-15T11:54:02.108Z,12.10
2019-05-15T11:59:06.538Z,12.20
2019-05-15T12:04:25.377Z,12.50
2019-05-15T12:09:18.797Z,12.20
2019-05-15T12:14:21.838Z,11.40
2019-05-15T12:19:25.439Z,11.90
2019-05-15T12:24:35.411Z,12.30
2019-05-15T12:29:34.458Z,12.60
2019-05-15T12:34:38.838Z,12.30
2019-05-15T12:39:42.676Z,12.50
2019-05-15T13:00:02.035Z,13.00
2019-05-15T13:05:08.522Z,12.80
2019-05-15T13:10:12.718Z,13.50
2019-05-15T13:15:18.788Z,14.60
2019-05-15T13:20:21.880Z,15.30
2019-05-15T13:25:27.851Z,14.70
2019-05-15T13:30:30.874Z,13.80
2019-05-15T13:35:34.470Z,13.30
2019-05-15T13:40:41.945Z,13.20
2019-05-15T13:45:43.341Z,13.20
2019-05-15T13:50:48.289Z,13.30
2019-05-15T13:55:52.043Z,13.50
2019-05-15T14:00:58.515Z,13.30
2019-05-15T14:06:01.134Z,12.80
2019-05-15T14:11:04.985Z,13.00
2019-05-15T14:16:09.675Z,13.20
2019-05-15T14:21:13.594Z,12.90
2019-05-15T14:26:20.263Z,12.80
2019-05-15T14:31:22.659Z,12.60
2019-05-15T14:36:28.298Z,12.80
2019-05-15T14:41:31.679Z,12.90
2019-05-15T14:46:38.231Z,13.10
2019-05-15T14:51:42.047Z,13.30
2019-05-15T14:56:45.646Z,13.20
2019-05-15T15:01:49.272Z,13.60
2019-05-15T15:06:53.358Z,13.10
2019-05-15T15:11:57.049Z,12.80
2019-05-15T15:17:00.690Z,12.60
2019-05-15T15:22:04.321Z,12.90
2019-05-15T15:27:08.408Z,12.80
2019-05-15T15:32:12.273Z,12.90
2019-05-15T15:37:15.902Z,13.20
2019-05-15T15:42:19.657Z,13.00
2019-05-15T15:47:23.326Z,12.90
2019-05-15T15:52:28.949Z,12.60
2019-05-15T15:57:32.191Z,12.70
2019-05-15T16:02:35.982Z,12.60
2019-05-15T16:07:39.641Z,12.70
2019-05-15T16:12:43.244Z,12.80
2019-05-15T16:17:48.839Z,12.80
2019-05-15T16:22:52.119Z,12.90
2019-05-15T16:27:57.717Z,13.10
2019-05-15T16:33:00.981Z,13.10
2019-05-15T16:38:09.248Z,13.30
2019-05-15T16:43:12.810Z,12.80
2019-05-15T16:48:18.514Z,13.10
2019-05-15T16:53:21.683Z,13.20
2019-05-15T16:58:25.282Z,12.90
2019-05-15T17:03:29.124Z,12.80
2019-05-15T17:08:32.824Z,12.70
2019-05-15T17:13:39.208Z,12.70
2019-05-15T17:18:41.747Z,12.70
2019-05-15T17:23:45.451Z,12.30
2019-05-15T17:28:49.065Z,12.40
2019-05-15T17:33:52.708Z,12.20
2019-05-15T17:38:58.033Z,12.30
2019-05-15T17:44:01.835Z,12.10
2019-05-15T17:49:11.149Z,12.40
2019-05-15T17:54:10.992Z,12.50
2019-05-15T17:59:14.586Z,12.40
2019-05-15T18:04:19.072Z,12.40
2019-05-15T18:09:22.998Z,12.20
2019-05-15T18:14:26.619Z,12.20
2019-05-15T18:19:30.244Z,12.10
2019-05-15T18:24:33.922Z,12.20
2019-05-15T18:29:38.609Z,12.30
2019-05-15T18:34:44.504Z,12.30
2019-05-15T18:39:51.887Z,12.10
2019-05-15T18:45:15.377Z,12.10
2019-05-15T18:50:19.234Z,12.30
2019-05-15T18:55:23.935Z,12.20
2019-05-15T19:00:29.535Z,12.50
2019-05-15T19:05:32.870Z,12.30
2019-05-15T19:10:38.515Z,12.30
2019-05-15T19:15:41.867Z,12.30
2019-05-15T19:20:45.677Z,12.20
2019-05-15T19:25:49.311Z,12.40
2019-05-15T19:30:53.048Z,12.20
2019-05-15T19:35:56.655Z,12.10
2019-05-15T19:41:03.104Z,12.20
2019-05-15T19:46:07.822Z,12.00
2019-05-15T19:51:12.581Z,11.80
2019-05-15T19:56:18.679Z,11.70
2019-05-15T20:01:21.563Z,11.60
2019-05-15T20:06:25.309Z,12.00
2019-05-15T20:11:29.146Z,12.30
2019-05-15T20:16:32.765Z,12.40
2019-05-15T20:21:36.378Z,12.10
2019-05-15T20:26:40.045Z,11.80
2019-05-15T20:31:43.636Z,11.70
2019-05-15T20:36:48.754Z,11.60
2019-05-15T20:41:52.794Z,11.80
2019-05-15T20:46:58.850Z,11.80
2019-05-15T20:52:01.607Z,11.80
2019-05-15T20:57:08.852Z,11.70
2019-05-15T21:02:18.578Z,11.60
2019-05-15T21:07:35.015Z,10.90
2019-05-15T21:12:29.872Z,10.90
2019-05-15T21:17:39.500Z,10.80
2019-05-15T21:22:45.014Z,10.60
2019-05-15T21:27:50.277Z,10.40
2019-05-15T21:32:58.255Z,10.20
2019-05-15T21:38:09.471Z,10.10
2019-05-15T21:43:15.172Z,10.00
2019-05-15T21:48:18.914Z,10.00
2019-05-15T21:53:22.526Z,10.00
2019-05-15T21:58:28.453Z,9.30
2019-05-15T22:03:34.248Z,8.30
2019-05-15T22:08:40.654Z,8.20
2019-05-15T22:13:48.038Z,8.20
2019-05-15T22:18:51.191Z,8.40
2019-05-15T22:24:00.353Z,8.60
2019-05-15T22:29:08.794Z,8.50
2019-05-15T22:34:14.923Z,8.20
2019-05-15T22:39:21.642Z,7.80
2019-05-15T22:44:28.193Z,7.80
2019-05-15T22:49:35.046Z,7.60
2019-05-15T22:54:40.282Z,7.40
2019-05-15T22:59:43.882Z,7.40
2019-05-15T23:04:50.089Z,7.20
2019-05-15T23:09:53.690Z,6.80
2019-05-15T23:15:05.158Z,6.80
2019-05-15T23:20:10.882Z,7.10
2019-05-15T23:25:14.727Z,7.30
2019-05-15T23:30:21.459Z,7.50
2019-05-15T23:35:38.917Z,7.80
2019-05-15T23:40:39.591Z,7.70
2019-05-15T23:45:39.022Z,7.80
2019-05-15T23:50:51.545Z,7.80
2019-05-15T23:55:58.744Z,7.50
